Weather at El Calafate Airport

Public forecast

Using degrees Celsius for public forecast. Weather courtesy of forecast.io.

Current aviation weather report (METAR) for El Calafate Airport

Report is more than 6 hours old.

Retrieved 2021/04/13 17:15 UTC (6 days ago):

SAWC 131715Z 05007KT 9999 -RA SCT020 BKN060 12/06 Q1000

Aviation forecast (TAF) for El Calafate Airport

Forecast is more than 12 hours old.

Retrieved 2021-04-03 00:20 UTC (16 days ago):

TAF SAWC 022300Z 0300/0324 25010KT 9999 SCT030 BKN090 TX12/0318Z TN08/0310Z